sensor_id;sensor_type;location;lat;lon;timestamp;pressure;altitude;pressure_sealevel;temperature;humidity
60371;BME280;48550;40.588;49.684;2022-10-16T00:01:28;102279.75;;;16.77;100.00
60371;BME280;48550;40.588;49.684;2022-10-16T00:03:55;102284.13;;;16.78;100.00
60371;BME280;48550;40.588;49.684;2022-10-16T00:06:22;102290.00;;;16.75;100.00
60371;BME280;48550;40.588;49.684;2022-10-16T00:08:49;102316.28;;;16.75;100.00
60371;BME280;48550;40.588;49.684;2022-10-16T00:11:17;102323.97;;;16.78;100.00
60371;BME280;48550;40.588;49.684;2022-10-16T00:13:45;102321.00;;;16.79;100.00
60371;BME280;48550;40.588;49.684;2022-10-16T00:16:12;102326.44;;;16.79;100.00
60371;BME280;48550;40.588;49.684;2022-10-16T00:18:39;102308.53;;;16.78;100.00
60371;BME280;48550;40.588;49.684;2022-10-16T00:21:07;102308.53;;;16.78;100.00
60371;BME280;48550;40.588;49.684;2022-10-16T00:23:34;102287.28;;;16.75;100.00
60371;BME280;48550;40.588;49.684;2022-10-16T00:26:03;102273.25;;;16.78;100.00
60371;BME280;48550;40.588;49.684;2022-10-16T00:28:29;102247.34;;;16.71;100.00
60371;BME280;48550;40.588;49.684;2022-10-16T00:30:55;102214.44;;;16.67;100.00
60371;BME280;48550;40.588;49.684;2022-10-16T00:33:21;102217.84;;;16.63;100.00
60371;BME280;48550;40.588;49.684;2022-10-16T00:35:47;102251.34;;;16.68;100.00
60371;BME280;48550;40.588;49.684;2022-10-16T00:38:13;102259.34;;;16.63;100.00
60371;BME280;48550;40.588;49.684;2022-10-16T00:40:40;102251.81;;;16.65;100.00
60371;BME280;48550;40.588;49.684;2022-10-16T00:43:43;102257.25;;;16.65;100.00
60371;BME280;48550;40.588;49.684;2022-10-16T00:46:17;102270.16;;;16.63;100.00
60371;BME280;48550;40.588;49.684;2022-10-16T00:51:18;102300.22;;;16.50;100.00
60371;BME280;48550;40.588;49.684;2022-10-16T00:53:45;102313.31;;;16.53;100.00
60371;BME280;48550;40.588;49.684;2022-10-16T00:56:11;102306.47;;;16.50;100.00
60371;BME280;48550;40.588;49.684;2022-10-16T00:58:37;102316.47;;;16.50;100.00
60371;BME280;48550;40.588;49.684;2022-10-16T01:01:02;102325.66;;;16.49;100.00
60371;BME280;48550;40.588;49.684;2022-10-16T01:03:34;102326.03;;;16.52;100.00
60371;BME280;48550;40.588;49.684;2022-10-16T01:06:11;102317.19;;;16.57;100.00
60371;BME280;48550;40.588;49.684;2022-10-16T01:11:44;102320.78;;;16.69;100.00
60371;BME280;48550;40.588;49.684;2022-10-16T01:14:28;102306.63;;;16.67;100.00
60371;BME280;48550;40.588;49.684;2022-10-16T01:17:07;102312.41;;;16.71;100.00
60371;BME280;48550;40.588;49.684;2022-10-16T01:23:02;102331.84;;;16.79;100.00
60371;BME280;48550;40.588;49.684;2022-10-16T01:28:16;102342.25;;;16.82;100.00
60371;BME280;48550;40.588;49.684;2022-10-16T01:30:44;102318.53;;;16.78;100.00
60371;BME280;48550;40.588;49.684;2022-10-16T01:33:29;102326.91;;;16.76;100.00
60371;BME280;48550;40.588;49.684;2022-10-16T01:36:02;102308.53;;;16.78;100.00
60371;BME280;48550;40.588;49.684;2022-10-16T01:38:34;102305.22;;;16.76;100.00
60371;BME280;48550;40.588;49.684;2022-10-16T01:41:14;102308.53;;;16.78;100.00
60371;BME280;48550;40.588;49.684;2022-10-16T01:44:01;102351.44;;;16.81;100.00
60371;BME280;48550;40.588;49.684;2022-10-16T01:46:30;102380.56;;;16.86;100.00
60371;BME280;48550;40.588;49.684;2022-10-16T01:48:59;102397.44;;;16.88;100.00
60371;BME280;48550;40.588;49.684;2022-10-16T01:51:26;102402.16;;;16.93;100.00
60371;BME280;48550;40.588;49.684;2022-10-16T01:53:56;102397.91;;;16.97;100.00
60371;BME280;48550;40.588;49.684;2022-10-16T01:56:25;102413.00;;;16.93;100.00
60371;BME280;48550;40.588;49.684;2022-10-16T01:59:01;102395.53;;;16.89;100.00
60371;BME280;48550;40.588;49.684;2022-10-16T02:01:32;102404.97;;;16.86;100.00
60371;BME280;48550;40.588;49.684;2022-10-16T02:04:03;102397.53;;;16.81;100.00
60371;BME280;48550;40.588;49.684;2022-10-16T02:06:29;102388.56;;;16.81;100.00
60371;BME280;48550;40.588;49.684;2022-10-16T02:08:55;102386.09;;;16.79;100.00
60371;BME280;48550;40.588;49.684;2022-10-16T02:11:21;102383.63;;;16.78;100.00
60371;BME280;48550;40.588;49.684;2022-10-16T02:13:53;102402.13;;;16.81;100.00
60371;BME280;48550;40.588;49.684;2022-10-16T02:16:20;102416.88;;;16.85;100.00
60371;BME280;48550;40.588;49.684;2022-10-16T02:18:46;102411.69;;;16.83;100.00
60371;BME280;48550;40.588;49.684;2022-10-16T02:21:46;102412.16;;;16.92;100.00
60371;BME280;48550;40.588;49.684;2022-10-16T02:24:19;102411.34;;;16.92;100.00
60371;BME280;48550;40.588;49.684;2022-10-16T02:29:43;102424.91;;;16.92;100.00
60371;BME280;48550;40.588;49.684;2022-10-16T02:32:16;102430.91;;;16.94;100.00
60371;BME280;48550;40.588;49.684;2022-10-16T02:34:44;102433.41;;;16.95;100.00
60371;BME280;48550;40.588;49.684;2022-10-16T02:37:11;102434.47;;;16.94;100.00
60371;BME280;48550;40.588;49.684;2022-10-16T02:39:38;102432.22;;;16.91;100.00
60371;BME280;48550;40.588;49.684;2022-10-16T02:42:04;102407.44;;;16.88;100.00
60371;BME280;48550;40.588;49.684;2022-10-16T02:44:34;102405.09;;;16.91;100.00
60371;BME280;48550;40.588;49.684;2022-10-16T02:47:00;102413.34;;;16.84;100.00
60371;BME280;48550;40.588;49.684;2022-10-16T02:49:26;102398.34;;;16.82;100.00
60371;BME280;48550;40.588;49.684;2022-10-16T02:51:51;102405.78;;;16.75;100.00
60371;BME280;48550;40.588;49.684;2022-10-16T02:54:17;102411.91;;;16.70;100.00
60371;BME280;48550;40.588;49.684;2022-10-16T02:56:43;102425.91;;;16.67;100.00
60371;BME280;48550;40.588;49.684;2022-10-16T02:59:08;102425.91;;;16.67;100.00
60371;BME280;48550;40.588;49.684;2022-10-16T03:01:34;102416.56;;;16.63;100.00
60371;BME280;48550;40.588;49.684;2022-10-16T03:04:00;102398.88;;;16.61;100.00
60371;BME280;48550;40.588;49.684;2022-10-16T03:06:25;102389.78;;;16.55;100.00
60371;BME280;48550;40.588;49.684;2022-10-16T03:08:51;102386.47;;;16.53;100.00
60371;BME280;48550;40.588;49.684;2022-10-16T03:11:17;102390.25;;;16.52;100.00
60371;BME280;48550;40.588;49.684;2022-10-16T03:13:42;102377.06;;;16.56;100.00
60371;BME280;48550;40.588;49.684;2022-10-16T03:16:08;102376.34;;;16.60;100.00
60371;BME280;48550;40.588;49.684;2022-10-16T03:18:34;102390.91;;;16.66;100.00
60371;BME280;48550;40.588;49.684;2022-10-16T03:20:59;102402.81;;;16.76;100.00
60371;BME280;48550;40.588;49.684;2022-10-16T03:23:25;102399.78;;;16.84;100.00
60371;BME280;48550;40.588;49.684;2022-10-16T03:25:51;102436.69;;;16.86;100.00
60371;BME280;48550;40.588;49.684;2022-10-16T03:28:17;102443.41;;;16.83;100.00
60371;BME280;48550;40.588;49.684;2022-10-16T03:30:43;102435.09;;;16.66;100.00
60371;BME280;48550;40.588;49.684;2022-10-16T03:33:09;102430.56;;;16.60;100.00
60371;BME280;48550;40.588;49.684;2022-10-16T03:35:35;102417.72;;;16.56;100.00
60371;BME280;48550;40.588;49.684;2022-10-16T03:38:00;102432.22;;;16.61;100.00
60371;BME280;48550;40.588;49.684;2022-10-16T03:40:26;102462.75;;;16.57;100.00
60371;BME280;48550;40.588;49.684;2022-10-16T03:42:52;102453.31;;;16.59;100.00
60371;BME280;48550;40.588;49.684;2022-10-16T03:45:20;102448.50;;;16.61;100.00
60371;BME280;48550;40.588;49.684;2022-10-16T03:47:46;102457.97;;;16.70;100.00
60371;BME280;48550;40.588;49.684;2022-10-16T03:50:12;102464.13;;;16.77;100.00
60371;BME280;48550;40.588;49.684;2022-10-16T03:52:38;102468.63;;;16.83;100.00
60371;BME280;48550;40.588;49.684;2022-10-16T03:55:04;102454.16;;;16.90;100.00
60371;BME280;48550;40.588;49.684;2022-10-16T03:57:30;102451.44;;;16.90;100.00
60371;BME280;48550;40.588;49.684;2022-10-16T03:59:56;102466.19;;;16.94;100.00
60371;BME280;48550;40.588;49.684;2022-10-16T04:02:21;102463.59;;;16.99;100.00
60371;BME280;48550;40.588;49.684;2022-10-16T04:04:47;102453.69;;;17.04;100.00
60371;BME280;48550;40.588;49.684;2022-10-16T04:07:13;102469.44;;;17.14;100.00
60371;BME280;48550;40.588;49.684;2022-10-16T04:09:38;102477.13;;;17.29;100.00
60371;BME280;48550;40.588;49.684;2022-10-16T04:12:04;102485.38;;;17.22;100.00
60371;BME280;48550;40.588;49.684;2022-10-16T04:14:30;102482.31;;;17.42;100.00
60371;BME280;48550;40.588;49.684;2022-10-16T04:16:55;102511.94;;;17.43;100.00
60371;BME280;48550;40.588;49.684;2022-10-16T04:19:21;102499.31;;;17.37;100.00
60371;BME280;48550;40.588;49.684;2022-10-16T04:21:47;102494.13;;;17.59;100.00
60371;BME280;48550;40.588;49.684;2022-10-16T04:24:12;102504.03;;;17.54;100.00
60371;BME280;48550;40.588;49.684;2022-10-16T04:26:38;102509.81;;;17.45;100.00
60371;BME280;48550;40.588;49.684;2022-10-16T04:29:04;102500.13;;;17.50;100.00
60371;BME280;48550;40.588;49.684;2022-10-16T04:31:31;102499.91;;;17.39;100.00
60371;BME280;48550;40.588;49.684;2022-10-16T04:33:57;102496.00;;;17.47;100.00
60371;BME280;48550;40.588;49.684;2022-10-16T04:36:22;102484.19;;;17.41;100.00
60371;BME280;48550;40.588;49.684;2022-10-16T04:38:48;102437.81;;;17.43;100.00
60371;BME280;48550;40.588;49.684;2022-10-16T04:41:14;102407.09;;;17.66;100.00
60371;BME280;48550;40.588;49.684;2022-10-16T04:43:40;102392.84;;;18.39;100.00
60371;BME280;48550;40.588;49.684;2022-10-16T04:46:05;102425.97;;;18.36;100.00
60371;BME280;48550;40.588;49.684;2022-10-16T04:48:31;102477.31;;;18.49;100.00
60371;BME280;48550;40.588;49.684;2022-10-16T04:50:57;102485.47;;;18.61;100.00
60371;BME280;48550;40.588;49.684;2022-10-16T04:53:23;102489.34;;;19.27;100.00
60371;BME280;48550;40.588;49.684;2022-10-16T04:55:49;102495.06;;;19.97;100.00
60371;BME280;48550;40.588;49.684;2022-10-16T04:58:15;102504.88;;;19.26;100.00
60371;BME280;48550;40.588;49.684;2022-10-16T05:00:41;102524.38;;;18.90;100.00
60371;BME280;48550;40.588;49.684;2022-10-16T05:03:07;102529.63;;;18.80;100.00
60371;BME280;48550;40.588;49.684;2022-10-16T05:05:34;102514.13;;;18.80;100.00
60371;BME280;48550;40.588;49.684;2022-10-16T05:08:00;102515.97;;;18.91;100.00
60371;BME280;48550;40.588;49.684;2022-10-16T05:10:26;102526.69;;;18.98;100.00
60371;BME280;48550;40.588;49.684;2022-10-16T05:12:52;102532.72;;;19.00;100.00
60371;BME280;48550;40.588;49.684;2022-10-16T05:15:18;102521.34;;;19.03;100.00
60371;BME280;48550;40.588;49.684;2022-10-16T05:17:44;102520.84;;;18.89;100.00
60371;BME280;48550;40.588;49.684;2022-10-16T05:20:09;102524.56;;;19.00;100.00
60371;BME280;48550;40.588;49.684;2022-10-16T05:22:35;102514.34;;;19.07;100.00
60371;BME280;48550;40.588;49.684;2022-10-16T05:25:01;102531.00;;;19.11;100.00
60371;BME280;48550;40.588;49.684;2022-10-16T05:27:27;102531.16;;;19.04;100.00
60371;BME280;48550;40.588;49.684;2022-10-16T05:29:52;102526.72;;;18.69;100.00
60371;BME280;48550;40.588;49.684;2022-10-16T05:32:18;102535.66;;;18.82;100.00
60371;BME280;48550;40.588;49.684;2022-10-16T05:34:45;102530.31;;;18.87;100.00
60371;BME280;48550;40.588;49.684;2022-10-16T05:37:11;102544.13;;;19.14;100.00
60371;BME280;48550;40.588;49.684;2022-10-16T05:39:38;102551.34;;;19.36;100.00
60371;BME280;48550;40.588;49.684;2022-10-16T05:42:04;102536.56;;;19.49;100.00
60371;BME280;48550;40.588;49.684;2022-10-16T05:44:30;102548.25;;;19.61;100.00
60371;BME280;48550;40.588;49.684;2022-10-16T05:46:56;102544.56;;;20.72;100.00
60371;BME280;48550;40.588;49.684;2022-10-16T05:49:22;102552.91;;;21.41;100.00
60371;BME280;48550;40.588;49.684;2022-10-16T05:51:47;102553.72;;;22.73;100.00
60371;BME280;48550;40.588;49.684;2022-10-16T05:54:13;102552.78;;;22.37;100.00
60371;BME280;48550;40.588;49.684;2022-10-16T05:56:39;102547.22;;;22.94;100.00
60371;BME280;48550;40.588;49.684;2022-10-16T05:59:05;102544.53;;;23.25;100.00
60371;BME280;48550;40.588;49.684;2022-10-16T06:01:31;102542.88;;;23.08;100.00
60371;BME280;48550;40.588;49.684;2022-10-16T06:03:57;102544.53;;;23.14;100.00
60371;BME280;48550;40.588;49.684;2022-10-16T06:06:24;102543.97;;;21.82;100.00
60371;BME280;48550;40.588;49.684;2022-10-16T06:08:55;102546.47;;;22.31;100.00
60371;BME280;48550;40.588;49.684;2022-10-16T06:11:28;102550.63;;;21.60;100.00
60371;BME280;48550;40.588;49.684;2022-10-16T06:13:57;102551.03;;;20.66;100.00
60371;BME280;48550;40.588;49.684;2022-10-16T06:16:25;102546.34;;;20.00;100.00
60371;BME280;48550;40.588;49.684;2022-10-16T06:18:51;102531.50;;;20.30;100.00
60371;BME280;48550;40.588;49.684;2022-10-16T06:21:20;102526.69;;;20.15;100.00
60371;BME280;48550;40.588;49.684;2022-10-16T06:23:47;102541.97;;;20.82;100.00
60371;BME280;48550;40.588;49.684;2022-10-16T06:26:14;102537.78;;;20.09;100.00
60371;BME280;48550;40.588;49.684;2022-10-16T06:28:40;102539.88;;;19.51;100.00
60371;BME280;48550;40.588;49.684;2022-10-16T06:31:07;102516.44;;;19.33;100.00
60371;BME280;48550;40.588;49.684;2022-10-16T06:33:33;102508.84;;;19.35;100.00
60371;BME280;48550;40.588;49.684;2022-10-16T06:36:11;102494.56;;;19.28;100.00
60371;BME280;48550;40.588;49.684;2022-10-16T06:38:38;102491.31;;;18.81;100.00
60371;BME280;48550;40.588;49.684;2022-10-16T06:41:05;102498.69;;;18.69;100.00
60371;BME280;48550;40.588;49.684;2022-10-16T06:43:31;102499.56;;;18.46;100.00
60371;BME280;48550;40.588;49.684;2022-10-16T06:45:58;102492.00;;;18.48;100.00
60371;BME280;48550;40.588;49.684;2022-10-16T06:48:25;102499.22;;;18.42;100.00
60371;BME280;48550;40.588;49.684;2022-10-16T06:51:02;102501.84;;;18.37;100.00
60371;BME280;48550;40.588;49.684;2022-10-16T06:53:31;102501.72;;;18.32;100.00
60371;BME280;48550;40.588;49.684;2022-10-16T06:55:57;102518.63;;;18.34;100.00
60371;BME280;48550;40.588;49.684;2022-10-16T06:58:23;102507.72;;;18.46;100.00
60371;BME280;48550;40.588;49.684;2022-10-16T07:00:49;102519.66;;;18.45;100.00
60371;BME280;48550;40.588;49.684;2022-10-16T07:03:20;102518.22;;;18.54;100.00
60371;BME280;48550;40.588;49.684;2022-10-16T07:05:46;102518.41;;;18.76;100.00
60371;BME280;48550;40.588;49.684;2022-10-16T07:08:12;102513.69;;;18.71;100.00
60371;BME280;48550;40.588;49.684;2022-10-16T07:10:38;102524.75;;;18.41;100.00
60371;BME280;48550;40.588;49.684;2022-10-16T07:13:03;102535.72;;;18.58;100.00
60371;BME280;48550;40.588;49.684;2022-10-16T07:15:29;102527.78;;;18.68;100.00
60371;BME280;48550;40.588;49.684;2022-10-16T07:17:55;102534.06;;;18.69;100.00
60371;BME280;48550;40.588;49.684;2022-10-16T07:20:21;102525.78;;;18.92;100.00
60371;BME280;48550;40.588;49.684;2022-10-16T07:22:46;102531.34;;;19.31;100.00
60371;BME280;48550;40.588;49.684;2022-10-16T07:25:12;102529.69;;;19.13;100.00
60371;BME280;48550;40.588;49.684;2022-10-16T07:27:38;102533.16;;;19.25;100.00
60371;BME280;48550;40.588;49.684;2022-10-16T07:30:04;102528.09;;;19.00;100.00
60371;BME280;48550;40.588;49.684;2022-10-16T07:32:31;102514.84;;;19.04;100.00
60371;BME280;48550;40.588;49.684;2022-10-16T07:34:57;102511.63;;;19.07;100.00
60371;BME280;48550;40.588;49.684;2022-10-16T07:37:22;102502.13;;;19.10;100.00
60371;BME280;48550;40.588;49.684;2022-10-16T07:39:48;102493.84;;;19.33;100.00
60371;BME280;48550;40.588;49.684;2022-10-16T07:42:14;102485.88;;;19.31;100.00
60371;BME280;48550;40.588;49.684;2022-10-16T07:44:40;102469.06;;;19.51;100.00
60371;BME280;48550;40.588;49.684;2022-10-16T07:47:06;102480.13;;;19.45;100.00
60371;BME280;48550;40.588;49.684;2022-10-16T07:49:33;102476.03;;;19.59;100.00
60371;BME280;48550;40.588;49.684;2022-10-16T07:51:59;102462.59;;;20.13;100.00
60371;BME280;48550;40.588;49.684;2022-10-16T07:54:24;102461.38;;;20.25;100.00
60371;BME280;48550;40.588;49.684;2022-10-16T07:56:50;102463.09;;;20.10;100.00
60371;BME280;48550;40.588;49.684;2022-10-16T07:59:16;102459.41;;;20.21;100.00
60371;BME280;48550;40.588;49.684;2022-10-16T08:01:42;102447.75;;;20.47;100.00
60371;BME280;48550;40.588;49.684;2022-10-16T08:04:08;102435.75;;;20.48;100.00
60371;BME280;48550;40.588;49.684;2022-10-16T08:06:38;102441.41;;;20.69;100.00
60371;BME280;48550;40.588;49.684;2022-10-16T08:09:05;102448.59;;;20.80;100.00
60371;BME280;48550;40.588;49.684;2022-10-16T08:11:32;102448.53;;;20.75;100.00
60371;BME280;48550;40.588;49.684;2022-10-16T08:13:58;102450.78;;;21.10;100.00
60371;BME280;48550;40.588;49.684;2022-10-16T08:16:23;102455.50;;;21.19;100.00
60371;BME280;48550;40.588;49.684;2022-10-16T08:18:49;102450.97;;;20.71;100.00
60371;BME280;48550;40.588;49.684;2022-10-16T08:21:18;102458.22;;;21.19;100.00
60371;BME280;48550;40.588;49.684;2022-10-16T08:23:44;102442.81;;;21.03;100.00
60371;BME280;48550;40.588;49.684;2022-10-16T08:26:11;102446.09;;;21.05;100.00
60371;BME280;48550;40.588;49.684;2022-10-16T08:28:37;102459.47;;;20.75;100.00
60371;BME280;48550;40.588;49.684;2022-10-16T08:33:35;102453.25;;;20.30;100.00
60371;BME280;48550;40.588;49.684;2022-10-16T08:36:03;102455.59;;;20.22;100.00
60371;BME280;48550;40.588;49.684;2022-10-16T08:38:29;102458.53;;;20.15;100.00
60371;BME280;48550;40.588;49.684;2022-10-16T08:46:41;102462.41;;;19.59;100.00
60371;BME280;48550;40.588;49.684;2022-10-16T08:49:12;102449.84;;;19.58;100.00
60371;BME280;48550;40.588;49.684;2022-10-16T08:51:39;102456.69;;;19.44;100.00
60371;BME280;48550;40.588;49.684;2022-10-16T08:54:19;102458.53;;;19.38;100.00
60371;BME280;48550;40.588;49.684;2022-10-16T08:56:47;102457.78;;;19.43;100.00
60371;BME280;48550;40.588;49.684;2022-10-16T08:59:14;102455.94;;;19.15;100.00
60371;BME280;48550;40.588;49.684;2022-10-16T09:01:45;102448.19;;;19.07;100.00
60371;BME280;48550;40.588;49.684;2022-10-16T09:07:11;102447.44;;;18.78;100.00
60371;BME280;48550;40.588;49.684;2022-10-16T09:09:58;102444.31;;;18.86;100.00
60371;BME280;48550;40.588;49.684;2022-10-16T09:12:37;102438.22;;;18.79;100.00
60371;BME280;48550;40.588;49.684;2022-10-16T09:18:00;102447.03;;;18.86;100.00
60371;BME280;48550;40.588;49.684;2022-10-16T09:25:31;102433.28;;;19.09;100.00
60371;BME280;48550;40.588;49.684;2022-10-16T09:27:58;102438.88;;;19.19;100.00
60371;BME280;48550;40.588;49.684;2022-10-16T09:30:27;102434.16;;;19.31;100.00
60371;BME280;48550;40.588;49.684;2022-10-16T09:32:54;102428.00;;;19.36;100.00
60371;BME280;48550;40.588;49.684;2022-10-16T09:35:31;102431.53;;;19.53;100.00
60371;BME280;48550;40.588;49.684;2022-10-16T09:37:57;102430.75;;;19.75;100.00
60371;BME280;48550;40.588;49.684;2022-10-16T09:43:01;102423.19;;;19.60;100.00
60371;BME280;48550;40.588;49.684;2022-10-16T09:45:28;102418.00;;;19.58;100.00
60371;BME280;48550;40.588;49.684;2022-10-16T09:47:53;102418.56;;;19.27;100.00
60371;BME280;48550;40.588;49.684;2022-10-16T09:52:47;102420.22;;;19.28;100.00
60371;BME280;48550;40.588;49.684;2022-10-16T09:55:16;102416.03;;;19.37;100.00
60371;BME280;48550;40.588;49.684;2022-10-16T09:57:49;102419.50;;;19.32;100.00
60371;BME280;48550;40.588;49.684;2022-10-16T10:00:16;102409.19;;;19.34;100.00
60371;BME280;48550;40.588;49.684;2022-10-16T10:02:43;102427.78;;;19.76;100.00
60371;BME280;48550;40.588;49.684;2022-10-16T10:05:27;102417.63;;;19.93;100.00
60371;BME280;48550;40.588;49.684;2022-10-16T10:07:58;102427.13;;;19.69;100.00
60371;BME280;48550;40.588;49.684;2022-10-16T10:10:28;102423.47;;;19.80;100.00
60371;BME280;48550;40.588;49.684;2022-10-16T10:12:55;102428.28;;;19.73;100.00
60371;BME280;48550;40.588;49.684;2022-10-16T10:15:22;102426.31;;;19.52;100.00
60371;BME280;48550;40.588;49.684;2022-10-16T10:17:54;102426.31;;;19.52;100.00
60371;BME280;48550;40.588;49.684;2022-10-16T10:20:35;102429.41;;;19.39;100.00
60371;BME280;48550;40.588;49.684;2022-10-16T10:23:22;102426.91;;;19.54;100.00
60371;BME280;48550;40.588;49.684;2022-10-16T10:25:57;102440.53;;;19.54;100.00
60371;BME280;48550;40.588;49.684;2022-10-16T10:28:42;102440.19;;;19.50;100.00
60371;BME280;48550;40.588;49.684;2022-10-16T10:36:57;102449.34;;;19.11;100.00
60371;BME280;48550;40.588;49.684;2022-10-16T10:39:32;102455.78;;;19.21;100.00
60371;BME280;48550;40.588;49.684;2022-10-16T10:50:20;102439.22;;;19.23;100.00
60371;BME280;48550;40.588;49.684;2022-10-16T10:52:59;102451.25;;;19.27;100.00
60371;BME280;48550;40.588;49.684;2022-10-16T10:58:00;102452.41;;;19.31;100.00
60371;BME280;48550;40.588;49.684;2022-10-16T11:03:35;102460.25;;;19.11;100.00
60371;BME280;48550;40.588;49.684;2022-10-16T11:09:13;102470.81;;;19.41;100.00
60371;BME280;48550;40.588;49.684;2022-10-16T11:11:54;102469.97;;;19.07;100.00
60371;BME280;48550;40.588;49.684;2022-10-16T11:14:43;102474.25;;;19.19;100.00
60371;BME280;48550;40.588;49.684;2022-10-16T11:17:23;102456.13;;;19.25;100.00
60371;BME280;48550;40.588;49.684;2022-10-16T11:19:53;102468.31;;;19.22;100.00
60371;BME280;48550;40.588;49.684;2022-10-16T11:22:22;102467.16;;;19.01;100.00
60371;BME280;48550;40.588;49.684;2022-10-16T11:27:34;102472.34;;;18.86;100.00
60371;BME280;48550;40.588;49.684;2022-10-16T11:30:04;102472.78;;;18.95;100.00
60371;BME280;48550;40.588;49.684;2022-10-16T11:35:53;102474.47;;;18.67;100.00
60371;BME280;48550;40.588;49.684;2022-10-16T11:40:54;102476.34;;;18.55;100.00
60371;BME280;48550;40.588;49.684;2022-10-16T11:43:38;102474.03;;;18.47;100.00
60371;BME280;48550;40.588;49.684;2022-10-16T11:46:15;102477.22;;;18.44;100.00
60371;BME280;48550;40.588;49.684;2022-10-16T11:48:48;102472.03;;;18.42;100.00
60371;BME280;48550;40.588;49.684;2022-10-16T11:56:38;102483.06;;;18.36;100.00
60371;BME280;48550;40.588;49.684;2022-10-16T11:59:16;102485.56;;;18.26;100.00
60371;BME280;48550;40.588;49.684;2022-10-16T12:01:54;102483.88;;;18.36;100.00
60371;BME280;48550;40.588;49.684;2022-10-16T12:04:45;102480.09;;;18.37;100.00
60371;BME280;48550;40.588;49.684;2022-10-16T12:07:18;102487.66;;;18.35;100.00
60371;BME280;48550;40.588;49.684;2022-10-16T12:09:46;102493.25;;;18.29;100.00
60371;BME280;48550;40.588;49.684;2022-10-16T12:15:01;102503.75;;;18.25;100.00
60371;BME280;48550;40.588;49.684;2022-10-16T12:17:35;102508.75;;;18.17;100.00
60371;BME280;48550;40.588;49.684;2022-10-16T12:22:41;102498.50;;;18.07;100.00
60371;BME280;48550;40.588;49.684;2022-10-16T12:28:21;102506.78;;;18.00;100.00
60371;BME280;48550;40.588;49.684;2022-10-16T12:30:55;102505.94;;;18.00;100.00
60371;BME280;48550;40.588;49.684;2022-10-16T12:33:40;102516.09;;;18.04;100.00
60371;BME280;48550;40.588;49.684;2022-10-16T12:36:27;102508.44;;;18.01;100.00
60371;BME280;48550;40.588;49.684;2022-10-16T12:38:53;102514.69;;;18.02;100.00
60371;BME280;48550;40.588;49.684;2022-10-16T12:41:34;102513.03;;;18.01;100.00
60371;BME280;48550;40.588;49.684;2022-10-16T12:44:01;102520.84;;;17.97;100.00
60371;BME280;48550;40.588;49.684;2022-10-16T12:51:40;102518.69;;;17.76;100.00
60371;BME280;48550;40.588;49.684;2022-10-16T12:56:58;102541.69;;;17.62;100.00
60371;BME280;48550;40.588;49.684;2022-10-16T12:59:31;102549.25;;;17.60;100.00
60371;BME280;48550;40.588;49.684;2022-10-16T13:05:20;102552.06;;;17.41;100.00
60371;BME280;48550;40.588;49.684;2022-10-16T13:14:00;102549.81;;;17.38;100.00
60371;BME280;48550;40.588;49.684;2022-10-16T13:22:32;102565.72;;;17.23;100.00
60371;BME280;48550;40.588;49.684;2022-10-16T13:25:13;102573.25;;;17.21;100.00
60371;BME280;48550;40.588;49.684;2022-10-16T13:28:05;102564.69;;;17.06;100.00
60371;BME280;48550;40.588;49.684;2022-10-16T13:30:39;102579.19;;;17.00;100.00
60371;BME280;48550;40.588;49.684;2022-10-16T13:36:01;102562.31;;;16.98;100.00
60371;BME280;48550;40.588;49.684;2022-10-16T13:38:32;102569.47;;;16.92;100.00
60371;BME280;48550;40.588;49.684;2022-10-16T13:41:00;102575.72;;;16.93;100.00
60371;BME280;48550;40.588;49.684;2022-10-16T13:43:33;102568.88;;;16.90;100.00
60371;BME280;48550;40.588;49.684;2022-10-16T13:48:28;102564.69;;;16.76;100.00
60371;BME280;48550;40.588;49.684;2022-10-16T13:51:01;102577.50;;;16.69;100.00
60371;BME280;48550;40.588;49.684;2022-10-16T13:53:27;102572.59;;;16.59;100.00
60371;BME280;48550;40.588;49.684;2022-10-16T13:55:55;102582.63;;;16.59;100.00
60371;BME280;48550;40.588;49.684;2022-10-16T13:58:21;102573.97;;;16.50;100.00
60371;BME280;48550;40.588;49.684;2022-10-16T14:01:04;102577.13;;;16.47;100.00
60371;BME280;48550;40.588;49.684;2022-10-16T14:03:34;102583.06;;;16.37;100.00
60371;BME280;48550;40.588;49.684;2022-10-16T14:06:03;102586.38;;;16.39;100.00
60371;BME280;48550;40.588;49.684;2022-10-16T14:08:30;102590.59;;;16.35;100.00
60371;BME280;48550;40.588;49.684;2022-10-16T14:11:00;102598.31;;;16.32;100.00
60371;BME280;48550;40.588;49.684;2022-10-16T14:13:46;102604.78;;;16.31;100.00
60371;BME280;48550;40.588;49.684;2022-10-16T14:16:21;102594.41;;;16.28;100.00
60371;BME280;48550;40.588;49.684;2022-10-16T14:19:06;102593.13;;;16.30;100.00
60371;BME280;48550;40.588;49.684;2022-10-16T14:21:33;102611.88;;;16.32;100.00
60371;BME280;48550;40.588;49.684;2022-10-16T14:24:10;102618.13;;;16.32;100.00
60371;BME280;48550;40.588;49.684;2022-10-16T14:26:42;102607.97;;;16.28;100.00
60371;BME280;48550;40.588;49.684;2022-10-16T14:29:17;102605.63;;;16.31;100.00
60371;BME280;48550;40.588;49.684;2022-10-16T14:31:54;102611.34;;;16.23;100.00
60371;BME280;48550;40.588;49.684;2022-10-16T14:34:33;102620.91;;;16.26;100.00